FDB1UA OKKK-OMDB
Flight info
| Callsign | FDB1UA |
|---|---|
| Flight time | 1h 16m |
| Altitude | 35000 |
| Route | SESRU M677 VUTEB |
| Aircraft | B738/M-SDE2E3FGHIRWXY/LB1 |
Departure
| Time | 2026-05-04 17:23 |
|---|---|
| Airport | Kuwait International Airport (OKKK) |
Arrival
| Time | 2026-05-04 18:39 |
|---|---|
| Airport | Dubai International Airport (OMDB) |
| Time | Latitude | Longitude | Altitude | Speed | Heading |
|---|---|---|---|---|---|
| 2026-05-04 16:53 | 29.23813 | 47.97154 | 169 ft | 0 kts | 83° |
| 2026-05-04 17:07 | 29.23812 | 47.97138 | 169 ft | 2 kts | 79° |
| 2026-05-04 17:07 | 29.23810 | 47.97120 | 169 ft | 2 kts | 96° |
| 2026-05-04 17:08 | 29.23811 | 47.97107 | 169 ft | 1 kts | 91° |
| 2026-05-04 17:08 | 29.23811 | 47.97086 | 169 ft | 1 kts | 161° |
| 2026-05-04 17:08 | 29.23812 | 47.97085 | 169 ft | 0 kts | 167° |
| 2026-05-04 17:09 | 29.23811 | 47.97085 | 169 ft | 0 kts | 164° |
| 2026-05-04 17:09 | 29.23809 | 47.97087 | 169 ft | 2 kts | 153° |
| 2026-05-04 17:09 | 29.23808 | 47.97088 | 169 ft | 0 kts | 152° |
| 2026-05-04 17:10 | 29.23805 | 47.97090 | 169 ft | 0 kts | 153° |
| 2026-05-04 17:10 | 29.23795 | 47.97086 | 169 ft | 3 kts | 208° |
| 2026-05-04 17:11 | 29.23774 | 47.97074 | 169 ft | 3 kts | 189° |
| 2026-05-04 17:11 | 29.23761 | 47.97078 | 169 ft | 0 kts | 160° |
| 2026-05-04 17:16 | 29.23715 | 47.97101 | 169 ft | 8 kts | 155° |
| 2026-05-04 17:16 | 29.23575 | 47.97191 | 169 ft | 7 kts | 181° |
| 2026-05-04 17:17 | 29.23538 | 47.97153 | 169 ft | 7 kts | 240° |
| 2026-05-04 17:17 | 29.23496 | 47.96982 | 168 ft | 10 kts | 275° |
| 2026-05-04 17:18 | 29.23506 | 47.96904 | 168 ft | 10 kts | 278° |
| 2026-05-04 17:18 | 29.23526 | 47.96754 | 168 ft | 9 kts | 279° |
| 2026-05-04 17:19 | 29.23580 | 47.96653 | 166 ft | 10 kts | 334° |
| 2026-05-04 17:19 | 29.23761 | 47.96557 | 164 ft | 17 kts | 334° |
| 2026-05-04 17:20 | 29.23967 | 47.96446 | 163 ft | 16 kts | 334° |
| 2026-05-04 17:20 | 29.24089 | 47.96376 | 163 ft | 7 kts | 312° |
| 2026-05-04 17:20 | 29.24092 | 47.96334 | 161 ft | 5 kts | 251° |
| 2026-05-04 17:21 | 29.24046 | 47.96222 | 157 ft | 10 kts | 245° |
| 2026-05-04 17:21 | 29.23999 | 47.96183 | 157 ft | 3 kts | 166° |
| 2026-05-04 17:22 | 29.23978 | 47.96191 | 157 ft | 3 kts | 157° |
| 2026-05-04 17:22 | 29.23946 | 47.96208 | 156 ft | 14 kts | 155° |
| 2026-05-04 17:23 | 29.21864 | 47.97313 | 393 ft | 175 kts | 155° |
| 2026-05-04 17:23 | 29.20767 | 47.97903 | 1131 ft | 177 kts | 152° |
| 2026-05-04 17:23 | 29.19105 | 48.00321 | 1701 ft | 225 kts | 113° |
| 2026-05-04 17:24 | 29.18468 | 48.02069 | 1949 ft | 248 kts | 114° |
| 2026-05-04 17:24 | 29.16179 | 48.07720 | 3809 ft | 269 kts | 115° |
| 2026-05-04 17:25 | 29.15399 | 48.09694 | 4445 ft | 276 kts | 114° |
| 2026-05-04 17:25 | 29.13788 | 48.13791 | 5758 ft | 286 kts | 115° |
| 2026-05-04 17:26 | 29.12131 | 48.17993 | 7122 ft | 294 kts | 115° |
| 2026-05-04 17:26 | 29.09557 | 48.24491 | 9173 ft | 305 kts | 116° |
| 2026-05-04 17:27 | 29.07834 | 48.28828 | 10334 ft | 318 kts | 117° |
| 2026-05-04 17:27 | 29.05867 | 48.33758 | 10689 ft | 361 kts | 116° |
| 2026-05-04 17:28 | 29.03733 | 48.39115 | 11674 ft | 376 kts | 117° |
| 2026-05-04 17:29 | 29.00419 | 48.47427 | 13500 ft | 391 kts | 117° |
| 2026-05-04 17:29 | 28.96981 | 48.56028 | 15404 ft | 401 kts | 117° |
| 2026-05-04 17:30 | 28.93454 | 48.64827 | 17315 ft | 412 kts | 117° |
| 2026-05-04 17:31 | 28.91049 | 48.70815 | 18489 ft | 418 kts | 117° |
| 2026-05-04 17:31 | 28.87394 | 48.79897 | 20077 ft | 426 kts | 117° |
| 2026-05-04 17:32 | 28.84889 | 48.86108 | 21045 ft | 434 kts | 117° |
| 2026-05-04 17:33 | 28.81065 | 48.95573 | 22592 ft | 442 kts | 117° |
| 2026-05-04 17:33 | 28.79773 | 48.98765 | 23075 ft | 445 kts | 117° |
| 2026-05-04 17:34 | 28.75845 | 49.08455 | 24276 ft | 454 kts | 118° |
| 2026-05-04 17:34 | 28.74515 | 49.11730 | 24641 ft | 457 kts | 118° |
| 2026-05-04 17:35 | 28.70469 | 49.21675 | 25721 ft | 466 kts | 118° |
| 2026-05-04 17:35 | 28.67719 | 49.28422 | 26397 ft | 473 kts | 118° |
| 2026-05-04 17:35 | 28.66320 | 49.31823 | 26722 ft | 476 kts | 119° |
| 2026-05-04 17:36 | 28.64923 | 49.35250 | 27036 ft | 479 kts | 118° |
| 2026-05-04 17:36 | 28.63520 | 49.38705 | 27343 ft | 482 kts | 118° |
| 2026-05-04 17:36 | 28.62102 | 49.42178 | 27648 ft | 486 kts | 118° |
| 2026-05-04 17:36 | 28.60661 | 49.45666 | 27947 ft | 488 kts | 120° |
| 2026-05-04 17:37 | 28.59031 | 49.49053 | 28229 ft | 489 kts | 124° |
| 2026-05-04 17:37 | 28.57263 | 49.52369 | 28519 ft | 491 kts | 126° |
| 2026-05-04 17:37 | 28.55446 | 49.55673 | 28784 ft | 494 kts | 127° |
| 2026-05-04 17:38 | 28.51787 | 49.62375 | 29020 ft | 502 kts | 126° |
| 2026-05-04 17:38 | 28.49971 | 49.65768 | 29391 ft | 502 kts | 126° |
| 2026-05-04 17:38 | 28.48162 | 49.69172 | 29726 ft | 504 kts | 126° |
| 2026-05-04 17:38 | 28.46343 | 49.72596 | 29944 ft | 507 kts | 126° |
| 2026-05-04 17:39 | 28.42488 | 49.79332 | 30337 ft | 507 kts | 135° |
| 2026-05-04 17:39 | 28.40109 | 49.82248 | 30576 ft | 501 kts | 143° |
| 2026-05-04 17:39 | 28.37434 | 49.84738 | 30796 ft | 494 kts | 153° |
| 2026-05-04 17:40 | 28.34577 | 49.86899 | 31037 ft | 493 kts | 154° |
| 2026-05-04 17:40 | 28.31703 | 49.89024 | 31302 ft | 493 kts | 154° |
| 2026-05-04 17:40 | 28.28829 | 49.91147 | 31620 ft | 492 kts | 154° |
| 2026-05-04 17:40 | 28.25967 | 49.93275 | 31969 ft | 491 kts | 154° |
| 2026-05-04 17:41 | 28.23117 | 49.95414 | 32274 ft | 491 kts | 154° |
| 2026-05-04 17:41 | 28.20272 | 49.97560 | 32562 ft | 491 kts | 154° |
| 2026-05-04 17:41 | 28.17432 | 49.99710 | 32863 ft | 491 kts | 154° |
| 2026-05-04 17:41 | 28.14592 | 50.01862 | 33181 ft | 490 kts | 154° |
| 2026-05-04 17:42 | 28.11761 | 50.04008 | 33485 ft | 490 kts | 154° |
| 2026-05-04 17:42 | 28.08932 | 50.06150 | 33772 ft | 489 kts | 155° |
| 2026-05-04 17:42 | 28.06103 | 50.08290 | 34048 ft | 488 kts | 155° |
| 2026-05-04 17:42 | 28.03286 | 50.10419 | 34335 ft | 486 kts | 155° |
| 2026-05-04 17:43 | 28.00476 | 50.12541 | 34616 ft | 485 kts | 155° |
| 2026-05-04 17:43 | 27.97670 | 50.14658 | 34883 ft | 484 kts | 155° |
| 2026-05-04 17:43 | 27.94870 | 50.16768 | 35146 ft | 483 kts | 155° |
| 2026-05-04 17:43 | 27.92077 | 50.18872 | 35407 ft | 482 kts | 155° |
| 2026-05-04 17:44 | 27.89296 | 50.20966 | 35663 ft | 481 kts | 155° |
| 2026-05-04 17:44 | 27.86510 | 50.23062 | 35909 ft | 480 kts | 155° |
| 2026-05-04 17:44 | 27.83734 | 50.25149 | 36154 ft | 479 kts | 155° |
| 2026-05-04 17:44 | 27.80965 | 50.27230 | 36405 ft | 478 kts | 155° |
| 2026-05-04 17:45 | 27.78196 | 50.29309 | 36633 ft | 477 kts | 155° |
| 2026-05-04 17:45 | 27.75432 | 50.31383 | 36795 ft | 478 kts | 155° |
| 2026-05-04 17:45 | 27.69887 | 50.35540 | 36786 ft | 478 kts | 155° |
| 2026-05-04 17:46 | 27.64403 | 50.39650 | 36788 ft | 476 kts | 155° |
| 2026-05-04 17:46 | 27.58916 | 50.43807 | 36793 ft | 475 kts | 154° |
| 2026-05-04 17:47 | 27.53478 | 50.48026 | 36790 ft | 474 kts | 154° |
| 2026-05-04 17:47 | 27.48043 | 50.52227 | 36796 ft | 473 kts | 154° |
| 2026-05-04 17:48 | 27.42605 | 50.56405 | 36788 ft | 473 kts | 154° |
| 2026-05-04 17:48 | 27.37156 | 50.60561 | 36795 ft | 473 kts | 154° |
| 2026-05-04 17:49 | 27.31699 | 50.64716 | 36799 ft | 474 kts | 154° |
| 2026-05-04 17:49 | 27.26235 | 50.68878 | 36810 ft | 475 kts | 154° |
| 2026-05-04 17:50 | 27.20756 | 50.73048 | 36787 ft | 476 kts | 154° |
| 2026-05-04 17:50 | 27.15290 | 50.77245 | 36787 ft | 479 kts | 151° |
| 2026-05-04 17:51 | 27.10364 | 50.82435 | 36785 ft | 489 kts | 141° |
| 2026-05-04 17:51 | 27.05649 | 50.87940 | 36792 ft | 489 kts | 142° |
| 2026-05-04 17:52 | 27.00885 | 50.93368 | 36785 ft | 490 kts | 140° |
| 2026-05-04 17:52 | 26.96892 | 50.99677 | 36799 ft | 501 kts | 128° |
| 2026-05-04 17:53 | 26.93323 | 51.06388 | 36786 ft | 501 kts | 127° |
| 2026-05-04 17:53 | 26.89686 | 51.13025 | 36783 ft | 499 kts | 128° |
| 2026-05-04 17:54 | 26.86383 | 51.19897 | 36774 ft | 508 kts | 115° |
| 2026-05-04 17:54 | 26.84156 | 51.27431 | 36785 ft | 510 kts | 112° |
| 2026-05-04 17:55 | 26.82025 | 51.34938 | 36786 ft | 509 kts | 113° |
| 2026-05-04 17:55 | 26.79810 | 51.42457 | 36783 ft | 508 kts | 113° |
| 2026-05-04 17:56 | 26.77560 | 51.49954 | 36779 ft | 508 kts | 114° |
| 2026-05-04 17:56 | 26.75308 | 51.57446 | 36780 ft | 508 kts | 113° |
| 2026-05-04 17:57 | 26.73059 | 51.64929 | 36779 ft | 507 kts | 113° |
| 2026-05-04 17:57 | 26.70792 | 51.72399 | 36774 ft | 507 kts | 114° |
| 2026-05-04 17:58 | 26.68526 | 51.79872 | 36773 ft | 507 kts | 113° |
| 2026-05-04 17:58 | 26.66265 | 51.87346 | 36772 ft | 507 kts | 113° |
| 2026-05-04 17:59 | 26.63955 | 51.94797 | 36769 ft | 507 kts | 115° |
| 2026-05-04 18:00 | 26.60312 | 52.05881 | 36771 ft | 507 kts | 115° |
| 2026-05-04 18:00 | 26.57880 | 52.13275 | 36766 ft | 507 kts | 115° |
| 2026-05-04 18:01 | 26.55461 | 52.20668 | 36770 ft | 507 kts | 115° |
| 2026-05-04 18:01 | 26.53039 | 52.28068 | 36772 ft | 507 kts | 115° |
| 2026-05-04 18:02 | 26.49396 | 52.39162 | 36762 ft | 507 kts | 115° |
| 2026-05-04 18:02 | 26.46963 | 52.46552 | 36761 ft | 507 kts | 115° |
| 2026-05-04 18:03 | 26.44527 | 52.53940 | 36759 ft | 507 kts | 114° |
| 2026-05-04 18:03 | 26.42096 | 52.61299 | 36747 ft | 504 kts | 114° |
| 2026-05-04 18:04 | 26.40086 | 52.67396 | 36742 ft | 503 kts | 114° |
| 2026-05-04 18:04 | 26.37704 | 52.74692 | 35852 ft | 498 kts | 114° |
| 2026-05-04 18:05 | 26.36517 | 52.78317 | 35257 ft | 498 kts | 114° |
| 2026-05-04 18:05 | 26.35322 | 52.81949 | 34769 ft | 496 kts | 114° |
| 2026-05-04 18:05 | 26.34139 | 52.85511 | 34617 ft | 486 kts | 114° |
| 2026-05-04 18:05 | 26.32967 | 52.89016 | 34395 ft | 478 kts | 114° |
| 2026-05-04 18:06 | 26.30681 | 52.95832 | 33962 ft | 463 kts | 114° |
| 2026-05-04 18:06 | 26.29543 | 52.99216 | 33103 ft | 471 kts | 114° |
| 2026-05-04 18:06 | 26.28378 | 53.02673 | 32199 ft | 481 kts | 114° |
| 2026-05-04 18:07 | 26.27203 | 53.06164 | 31666 ft | 480 kts | 114° |
| 2026-05-04 18:07 | 26.26042 | 53.09627 | 31342 ft | 474 kts | 114° |
| 2026-05-04 18:07 | 26.24895 | 53.13046 | 31010 ft | 468 kts | 114° |
| 2026-05-04 18:07 | 26.23760 | 53.16424 | 30786 ft | 460 kts | 114° |
| 2026-05-04 18:08 | 26.22653 | 53.19715 | 30765 ft | 447 kts | 114° |
| 2026-05-04 18:08 | 26.21578 | 53.22907 | 30745 ft | 437 kts | 114° |
| 2026-05-04 18:08 | 26.19395 | 53.29355 | 30780 ft | 454 kts | 114° |
| 2026-05-04 18:09 | 26.17027 | 53.36044 | 30366 ft | 481 kts | 117° |
| 2026-05-04 18:09 | 26.14207 | 53.42924 | 29467 ft | 487 kts | 118° |
| 2026-05-04 18:10 | 26.12793 | 53.46315 | 29015 ft | 480 kts | 118° |
| 2026-05-04 18:10 | 26.11407 | 53.49665 | 28588 ft | 474 kts | 117° |
| 2026-05-04 18:10 | 26.10047 | 53.52978 | 28174 ft | 468 kts | 117° |
| 2026-05-04 18:10 | 26.08741 | 53.56177 | 27783 ft | 462 kts | 117° |
| 2026-05-04 18:11 | 26.07425 | 53.59411 | 27385 ft | 456 kts | 117° |
| 2026-05-04 18:11 | 26.06124 | 53.62604 | 27002 ft | 451 kts | 117° |
| 2026-05-04 18:11 | 26.04837 | 53.65762 | 26615 ft | 446 kts | 117° |
| 2026-05-04 18:11 | 26.03564 | 53.68881 | 26238 ft | 441 kts | 116° |
| 2026-05-04 18:12 | 26.02304 | 53.71966 | 25863 ft | 436 kts | 116° |
| 2026-05-04 18:12 | 26.01053 | 53.75024 | 25490 ft | 432 kts | 116° |
| 2026-05-04 18:12 | 25.99831 | 53.78063 | 25120 ft | 429 kts | 115° |
| 2026-05-04 18:12 | 25.98643 | 53.81090 | 24751 ft | 426 kts | 115° |
| 2026-05-04 18:13 | 25.97470 | 53.84101 | 24373 ft | 423 kts | 115° |
| 2026-05-04 18:13 | 25.96304 | 53.87090 | 24008 ft | 421 kts | 115° |
| 2026-05-04 18:13 | 25.93981 | 53.93016 | 23260 ft | 416 kts | 115° |
| 2026-05-04 18:14 | 25.92824 | 53.95953 | 22847 ft | 413 kts | 115° |
| 2026-05-04 18:14 | 25.91690 | 53.98825 | 22471 ft | 410 kts | 115° |
| 2026-05-04 18:14 | 25.90463 | 54.01709 | 22105 ft | 406 kts | 117° |
| 2026-05-04 18:15 | 25.87968 | 54.07227 | 21406 ft | 400 kts | 118° |
| 2026-05-04 18:15 | 25.85498 | 54.12713 | 20724 ft | 395 kts | 117° |
| 2026-05-04 18:15 | 25.84281 | 54.15446 | 20385 ft | 393 kts | 117° |
| 2026-05-04 18:16 | 25.83075 | 54.18157 | 20051 ft | 391 kts | 117° |
| 2026-05-04 18:16 | 25.81890 | 54.20853 | 19707 ft | 389 kts | 115° |
| 2026-05-04 18:16 | 25.80904 | 54.23654 | 19381 ft | 391 kts | 110° |
| 2026-05-04 18:17 | 25.79170 | 54.29402 | 18696 ft | 392 kts | 109° |
| 2026-05-04 18:17 | 25.78321 | 54.32267 | 18344 ft | 390 kts | 109° |
| 2026-05-04 18:17 | 25.76607 | 54.37929 | 17623 ft | 385 kts | 109° |
| 2026-05-04 18:18 | 25.75746 | 54.40728 | 17279 ft | 382 kts | 109° |
| 2026-05-04 18:18 | 25.74889 | 54.43501 | 16937 ft | 379 kts | 109° |
| 2026-05-04 18:18 | 25.74036 | 54.46254 | 16609 ft | 376 kts | 109° |
| 2026-05-04 18:18 | 25.73188 | 54.48987 | 16286 ft | 373 kts | 109° |
| 2026-05-04 18:19 | 25.71512 | 54.54390 | 15645 ft | 369 kts | 109° |
| 2026-05-04 18:19 | 25.70677 | 54.57075 | 15322 ft | 366 kts | 108° |
| 2026-05-04 18:19 | 25.69849 | 54.59738 | 15007 ft | 365 kts | 108° |
| 2026-05-04 18:20 | 25.69014 | 54.62382 | 14694 ft | 363 kts | 109° |
| 2026-05-04 18:20 | 25.68172 | 54.65010 | 14376 ft | 361 kts | 109° |
| 2026-05-04 18:20 | 25.67330 | 54.67629 | 14066 ft | 360 kts | 108° |
| 2026-05-04 18:20 | 25.66491 | 54.70237 | 13755 ft | 358 kts | 108° |
| 2026-05-04 18:21 | 25.65657 | 54.72832 | 13426 ft | 357 kts | 108° |
| 2026-05-04 18:21 | 25.64840 | 54.75376 | 13093 ft | 353 kts | 108° |
| 2026-05-04 18:21 | 25.64025 | 54.77915 | 12776 ft | 347 kts | 108° |
| 2026-05-04 18:21 | 25.63212 | 54.80449 | 12461 ft | 342 kts | 108° |
| 2026-05-04 18:22 | 25.62430 | 54.82880 | 12170 ft | 337 kts | 108° |
| 2026-05-04 18:22 | 25.61650 | 54.85305 | 11880 ft | 332 kts | 108° |
| 2026-05-04 18:22 | 25.60846 | 54.87674 | 11742 ft | 323 kts | 110° |
| 2026-05-04 18:22 | 25.59976 | 54.89909 | 11703 ft | 310 kts | 112° |
| 2026-05-04 18:23 | 25.59107 | 54.92062 | 11558 ft | 302 kts | 112° |
| 2026-05-04 18:23 | 25.58261 | 54.94165 | 11420 ft | 295 kts | 111° |
| 2026-05-04 18:23 | 25.57443 | 54.96217 | 11280 ft | 288 kts | 111° |
| 2026-05-04 18:23 | 25.56646 | 54.98232 | 11147 ft | 284 kts | 111° |
| 2026-05-04 18:24 | 25.55859 | 55.00227 | 11013 ft | 282 kts | 111° |
| 2026-05-04 18:24 | 25.55075 | 55.02217 | 10881 ft | 282 kts | 111° |
| 2026-05-04 18:24 | 25.54255 | 55.04188 | 10735 ft | 282 kts | 115° |
| 2026-05-04 18:24 | 25.53298 | 55.06083 | 10602 ft | 282 kts | 118° |
| 2026-05-04 18:25 | 25.52303 | 55.07953 | 10466 ft | 282 kts | 118° |
| 2026-05-04 18:25 | 25.51308 | 55.09822 | 10317 ft | 282 kts | 118° |
| 2026-05-04 18:25 | 25.50320 | 55.11695 | 10179 ft | 282 kts | 117° |
| 2026-05-04 18:25 | 25.49339 | 55.13571 | 10038 ft | 281 kts | 117° |
| 2026-05-04 18:26 | 25.48375 | 55.15420 | 9903 ft | 281 kts | 117° |
| 2026-05-04 18:26 | 25.47400 | 55.17296 | 9756 ft | 281 kts | 117° |
| 2026-05-04 18:26 | 25.46423 | 55.19175 | 9612 ft | 281 kts | 117° |
| 2026-05-04 18:26 | 25.45321 | 55.20959 | 9455 ft | 283 kts | 128° |
| 2026-05-04 18:27 | 25.44007 | 55.22578 | 9317 ft | 283 kts | 131° |
| 2026-05-04 18:27 | 25.42660 | 55.24158 | 9168 ft | 282 kts | 131° |
| 2026-05-04 18:27 | 25.41326 | 55.25735 | 9028 ft | 281 kts | 130° |
| 2026-05-04 18:27 | 25.40004 | 55.27327 | 8887 ft | 280 kts | 130° |
| 2026-05-04 18:28 | 25.38709 | 55.28906 | 8733 ft | 274 kts | 130° |
| 2026-05-04 18:28 | 25.37447 | 55.30451 | 8592 ft | 268 kts | 129° |
| 2026-05-04 18:28 | 25.36215 | 55.31959 | 8458 ft | 261 kts | 130° |
| 2026-05-04 18:28 | 25.34896 | 55.33188 | 8318 ft | 258 kts | 148° |
| 2026-05-04 18:29 | 25.33270 | 55.34135 | 8210 ft | 253 kts | 151° |
| 2026-05-04 18:29 | 25.31705 | 55.35023 | 8090 ft | 253 kts | 151° |
| 2026-05-04 18:29 | 25.30145 | 55.35916 | 7970 ft | 255 kts | 151° |
| 2026-05-04 18:29 | 25.28581 | 55.36818 | 7853 ft | 257 kts | 151° |
| 2026-05-04 18:30 | 25.25444 | 55.38639 | 7217 ft | 254 kts | 150° |
| 2026-05-04 18:30 | 25.23888 | 55.39549 | 6907 ft | 252 kts | 150° |
| 2026-05-04 18:30 | 25.22343 | 55.40452 | 6575 ft | 251 kts | 150° |
| 2026-05-04 18:31 | 25.20858 | 55.41320 | 6251 ft | 250 kts | 150° |
| 2026-05-04 18:31 | 25.19281 | 55.42242 | 5898 ft | 248 kts | 150° |
| 2026-05-04 18:31 | 25.17764 | 55.43130 | 5575 ft | 246 kts | 150° |
| 2026-05-04 18:31 | 25.16257 | 55.44012 | 5254 ft | 244 kts | 151° |
| 2026-05-04 18:32 | 25.14761 | 55.44887 | 4940 ft | 242 kts | 151° |
| 2026-05-04 18:32 | 25.13292 | 55.45745 | 4608 ft | 237 kts | 151° |
| 2026-05-04 18:32 | 25.11837 | 55.46600 | 4109 ft | 237 kts | 149° |
| 2026-05-04 18:32 | 25.10670 | 55.47845 | 3630 ft | 235 kts | 121° |
| 2026-05-04 18:33 | 25.09864 | 55.49335 | 3495 ft | 218 kts | 120° |
| 2026-05-04 18:33 | 25.09100 | 55.50715 | 3360 ft | 204 kts | 121° |
| 2026-05-04 18:33 | 25.08549 | 55.52126 | 3003 ft | 201 kts | 94° |
| 2026-05-04 18:33 | 25.08829 | 55.53586 | 2642 ft | 195 kts | 55° |
| 2026-05-04 18:34 | 25.09786 | 55.54590 | 2386 ft | 186 kts | 33° |
| 2026-05-04 18:34 | 25.10823 | 55.55378 | 2227 ft | 178 kts | 27° |
| 2026-05-04 18:34 | 25.11995 | 55.55628 | 2054 ft | 174 kts | 345° |
| 2026-05-04 18:34 | 25.13118 | 55.55088 | 2036 ft | 179 kts | 332° |
| 2026-05-04 18:35 | 25.14215 | 55.54478 | 2006 ft | 173 kts | 332° |
| 2026-05-04 18:35 | 25.15256 | 55.53854 | 1998 ft | 168 kts | 320° |
| 2026-05-04 18:35 | 25.15984 | 55.52851 | 2040 ft | 169 kts | 308° |
| 2026-05-04 18:35 | 25.16711 | 55.51809 | 2020 ft | 172 kts | 307° |
| 2026-05-04 18:36 | 25.17372 | 55.50743 | 2017 ft | 163 kts | 303° |
| 2026-05-04 18:36 | 25.17954 | 55.49717 | 2006 ft | 153 kts | 302° |
| 2026-05-04 18:36 | 25.18504 | 55.48726 | 1904 ft | 152 kts | 302° |
| 2026-05-04 18:36 | 25.19057 | 55.47724 | 1709 ft | 151 kts | 302° |
| 2026-05-04 18:37 | 25.19590 | 55.46755 | 1525 ft | 150 kts | 302° |
| 2026-05-04 18:37 | 25.20132 | 55.45767 | 1325 ft | 151 kts | 302° |
| 2026-05-04 18:37 | 25.20680 | 55.44775 | 1140 ft | 152 kts | 301° |
| 2026-05-04 18:37 | 25.21227 | 55.43780 | 937 ft | 151 kts | 301° |
| 2026-05-04 18:38 | 25.21768 | 55.42797 | 765 ft | 149 kts | 300° |
| 2026-05-04 18:38 | 25.22313 | 55.41792 | 577 ft | 156 kts | 300° |
| 2026-05-04 18:38 | 25.22886 | 55.40775 | 365 ft | 156 kts | 300° |
| 2026-05-04 18:38 | 25.23445 | 55.39757 | 148 ft | 155 kts | 300° |
| 2026-05-04 18:39 | 25.23990 | 55.38769 | 29 ft | 141 kts | 302° |
| 2026-05-04 18:39 | 25.24425 | 55.37986 | 29 ft | 98 kts | 301° |
| 2026-05-04 18:39 | 25.24686 | 55.37514 | 27 ft | 49 kts | 301° |
| 2026-05-04 18:39 | 25.24785 | 55.37214 | 28 ft | 38 kts | 274° |
| 2026-05-04 18:40 | 25.24799 | 55.36967 | 22 ft | 29 kts | 285° |
| 2026-05-04 18:40 | 25.24860 | 55.36804 | 22 ft | 21 kts | 282° |
| 2026-05-04 18:40 | 25.24902 | 55.36651 | 22 ft | 21 kts | 297° |
| 2026-05-04 18:40 | 25.24975 | 55.36518 | 21 ft | 20 kts | 302° |
| 2026-05-04 18:41 | 25.25047 | 55.36390 | 22 ft | 19 kts | 301° |
| 2026-05-04 18:41 | 25.25118 | 55.36267 | 23 ft | 19 kts | 301° |
| 2026-05-04 18:41 | 25.25183 | 55.36149 | 21 ft | 18 kts | 302° |
| 2026-05-04 18:41 | 25.25250 | 55.36032 | 21 ft | 17 kts | 302° |
| 2026-05-04 18:42 | 25.25312 | 55.35921 | 21 ft | 17 kts | 301° |
| 2026-05-04 18:42 | 25.25372 | 55.35813 | 22 ft | 16 kts | 301° |
| 2026-05-04 18:42 | 25.25431 | 55.35709 | 22 ft | 16 kts | 301° |
| 2026-05-04 18:42 | 25.25486 | 55.35609 | 22 ft | 15 kts | 302° |
| 2026-05-04 18:43 | 25.25539 | 55.35515 | 20 ft | 14 kts | 301° |
| 2026-05-04 18:43 | 25.25591 | 55.35424 | 20 ft | 14 kts | 303° |
| 2026-05-04 18:43 | 25.25640 | 55.35337 | 21 ft | 13 kts | 302° |
| 2026-05-04 18:43 | 25.25687 | 55.35253 | 20 ft | 13 kts | 302° |
| 2026-05-04 18:44 | 25.25733 | 55.35170 | 20 ft | 12 kts | 301° |
| 2026-05-04 18:44 | 25.25748 | 55.35143 | 22 ft | 12 kts | 301° |
| 2026-05-04 18:44 | 25.25819 | 55.35011 | 22 ft | 12 kts | 301° |
| 2026-05-04 18:44 | 25.25862 | 55.34935 | 22 ft | 11 kts | 302° |
| 2026-05-04 18:45 | 25.25903 | 55.34862 | 22 ft | 11 kts | 302° |
| 2026-05-04 18:45 | 25.25943 | 55.34789 | 20 ft | 11 kts | 302° |
| 2026-05-04 18:45 | 25.25983 | 55.34720 | 21 ft | 11 kts | 302° |
| 2026-05-04 18:45 | 25.26021 | 55.34652 | 20 ft | 10 kts | 301° |
| 2026-05-04 18:46 | 25.26057 | 55.34586 | 20 ft | 10 kts | 301° |
| 2026-05-04 18:46 | 25.26094 | 55.34522 | 22 ft | 10 kts | 301° |
| 2026-05-04 18:46 | 25.26129 | 55.34459 | 20 ft | 9 kts | 302° |
| 2026-05-04 18:46 | 25.26163 | 55.34400 | 20 ft | 9 kts | 302° |
| 2026-05-04 18:47 | 25.26194 | 55.34344 | 20 ft | 6 kts | 302° |
| 2026-05-04 18:47 | 25.26219 | 55.34325 | 20 ft | 3 kts | 3° |
| 2026-05-04 18:47 | 25.26242 | 55.34337 | 20 ft | 4 kts | 30° |
| 2026-05-04 18:47 | 25.26263 | 55.34352 | 20 ft | 4 kts | 30° |
| 2026-05-04 18:48 | 25.26285 | 55.34365 | 20 ft | 4 kts | 30° |
| 2026-05-04 18:48 | 25.26298 | 55.34374 | 20 ft | 0 kts | 31° |
| 2026-05-04 18:48 | 25.26307 | 55.34380 | 20 ft | 1 kts | 31° |